Time;durP1;ratioP1;P1;durP2;ratioP2;P2;SDS_P1;SDS_P2;PMS_P1;PMS_P2;Temp;Humidity;BMP_temperature;BMP_pressure;BME280_temperature;BME280_humidity;BME280_pressure;Samples;Min_cycle;Max_cycle;Signal;HPM_P1;HPM_P2
2021/04/14 00:02:14;;;;;;;3.10;2.40;;;;;;;;;;4991831;28;20532;-75
2021/04/14 00:04:40;;;;;;;5.73;2.80;;;;;;;;;;4975673;28;20669;-75
2021/04/14 00:07:07;;;;;;;4.63;2.77;;;;;;;;;;4975365;28;20216;-75
2021/04/14 00:09:33;;;;;;;5.00;2.57;;;;;;;;;;4975326;28;20176;-75
2021/04/14 00:11:59;;;;;;;4.73;2.90;;;;;;;;;;4975720;28;20285;-75
2021/04/14 00:14:25;;;;;;;4.23;2.80;;;;;;;;;;4991603;28;20258;-75
2021/04/14 00:16:51;;;;;;;4.00;2.60;;;;;;;;;;4975380;28;20687;-75
2021/04/14 00:19:17;;;;;;;3.90;3.17;;;;;;;;;;4976119;28;20186;-75
2021/04/14 00:21:43;;;;;;;3.43;2.80;;;;;;;;;;4991126;28;20172;-75
2021/04/14 00:24:12;;;;;;;4.53;2.80;;;;;;;;;;4991619;28;20555;-75
2021/04/14 00:26:39;;;;;;;5.60;3.00;;;;;;;;;;4975416;28;20188;-75
2021/04/14 00:29:05;;;;;;;4.83;2.90;;;;;;;;;;4991282;28;20264;-75
2021/04/14 00:31:37;;;;;;;4.77;2.80;;;;;;;;;;4991301;28;20269;-75
2021/04/14 00:34:13;;;;;;;3.83;2.70;;;;;;;;;;4991567;28;20187;-75
2021/04/14 00:36:39;;;;;;;3.27;2.40;;;;;;;;;;4991122;28;20211;-75
2021/04/14 00:39:06;;;;;;;5.33;2.67;;;;;;;;;;4975086;28;20587;-75
2021/04/14 00:41:32;;;;;;;7.43;3.37;;;;;;;;;;4991330;28;20186;-75
2021/04/14 00:43:58;;;;;;;4.67;3.00;;;;;;;;;;4974924;28;20179;-75
2021/04/14 00:46:24;;;;;;;3.73;2.70;;;;;;;;;;4991364;28;20549;-75
2021/04/14 00:48:50;;;;;;;4.37;3.23;;;;;;;;;;4991007;28;20204;-75
2021/04/14 00:51:19;;;;;;;5.03;3.30;;;;;;;;;;4991434;28;20237;-75
2021/04/14 00:53:45;;;;;;;7.67;3.07;;;;;;;;;;4992327;28;20184;-75
2021/04/14 00:56:11;;;;;;;4.00;2.73;;;;;;;;;;4978905;28;20270;-75
2021/04/14 00:58:37;;;;;;;4.60;3.17;;;;;;;;;;4978394;28;20624;-75
2021/04/14 01:01:03;;;;;;;5.17;3.33;;;;;;;;;;4995255;28;20175;-75
2021/04/14 01:03:34;;;;;;;5.37;3.23;;;;;;;;;;4995220;28;20178;-75
2021/04/14 01:06:03;;;;;;;5.57;3.50;;;;;;;;;;4994845;28;20669;-75
2021/04/14 01:08:29;;;;;;;5.40;3.27;;;;;;;;;;4994735;28;20694;-75
2021/04/14 01:10:55;;;;;;;5.17;3.57;;;;;;;;;;4978844;28;20222;-75
2021/04/14 01:13:21;;;;;;;5.33;3.47;;;;;;;;;;4979057;28;20662;-75
2021/04/14 01:15:48;;;;;;;5.23;3.20;;;;;;;;;;4978661;28;20187;-75
2021/04/14 01:18:18;;;;;;;4.27;3.43;;;;;;;;;;4994561;28;20610;-75
2021/04/14 01:20:44;;;;;;;5.70;3.57;;;;;;;;;;4978342;28;20183;-75
2021/04/14 01:23:10;;;;;;;5.27;3.27;;;;;;;;;;4995799;28;20183;-75
2021/04/14 01:25:37;;;;;;;4.70;3.33;;;;;;;;;;4995722;28;20174;-75
2021/04/14 01:28:11;;;;;;;5.27;3.13;;;;;;;;;;4978677;28;20212;-75
2021/04/14 01:30:37;;;;;;;5.40;3.50;;;;;;;;;;4978605;28;20186;-75
2021/04/14 01:33:03;;;;;;;5.03;3.57;;;;;;;;;;4994843;28;20187;-75
2021/04/14 01:35:29;;;;;;;4.80;3.43;;;;;;;;;;4978980;28;20188;-75
2021/04/14 01:37:55;;;;;;;4.50;3.53;;;;;;;;;;4978751;28;20690;-75
2021/04/14 01:40:21;;;;;;;5.47;3.70;;;;;;;;;;4995146;28;20187;-75
2021/04/14 01:42:47;;;;;;;5.60;3.60;;;;;;;;;;4978592;28;20183;-75
2021/04/14 01:45:14;;;;;;;7.33;4.00;;;;;;;;;;4996057;28;20554;-75
2021/04/14 01:47:40;;;;;;;7.13;3.50;;;;;;;;;;4979386;28;20684;-75
2021/04/14 01:50:06;;;;;;;4.10;3.43;;;;;;;;;;4978530;28;20223;-75
2021/04/14 01:52:33;;;;;;;7.37;3.37;;;;;;;;;;4978395;28;20562;-75
2021/04/14 01:54:59;;;;;;;5.13;3.60;;;;;;;;;;4994997;28;20272;-75
2021/04/14 01:57:25;;;;;;;7.10;3.40;;;;;;;;;;4995002;28;20227;-75
2021/04/14 01:59:51;;;;;;;4.57;3.37;;;;;;;;;;4996134;28;20574;-75
2021/04/14 02:02:17;;;;;;;3.83;3.00;;;;;;;;;;4978335;28;20276;-75
2021/04/14 02:04:43;;;;;;;4.57;3.60;;;;;;;;;;4977941;28;20221;-75
2021/04/14 02:07:09;;;;;;;4.50;3.23;;;;;;;;;;4993892;28;20216;-75
2021/04/14 02:09:35;;;;;;;4.93;3.07;;;;;;;;;;4995045;28;20187;-75
2021/04/14 02:12:01;;;;;;;6.03;3.53;;;;;;;;;;4995299;28;20187;-75
2021/04/14 02:14:27;;;;;;;4.47;3.70;;;;;;;;;;4994306;28;20198;-75
2021/04/14 02:16:53;;;;;;;4.90;3.70;;;;;;;;;;4980599;28;20219;-75
2021/04/14 02:19:19;;;;;;;5.00;3.60;;;;;;;;;;4994176;28;20570;-75
2021/04/14 02:21:45;;;;;;;4.57;4.07;;;;;;;;;;4994186;28;20235;-75
2021/04/14 02:24:11;;;;;;;6.60;3.83;;;;;;;;;;4994374;28;20174;-75
2021/04/14 02:26:37;;;;;;;5.13;3.60;;;;;;;;;;4993753;28;20177;-75
2021/04/14 02:29:03;;;;;;;3.97;3.50;;;;;;;;;;4977747;28;20197;-75
2021/04/14 02:31:32;;;;;;;5.87;4.00;;;;;;;;;;4994125;28;20631;-75
2021/04/14 02:34:01;;;;;;;6.07;4.30;;;;;;;;;;4994117;28;20182;-75
2021/04/14 02:36:27;;;;;;;4.90;3.60;;;;;;;;;;4994136;28;20190;-75
2021/04/14 02:38:53;;;;;;;5.47;3.90;;;;;;;;;;4977748;28;20217;-75
2021/04/14 02:41:20;;;;;;;4.53;3.40;;;;;;;;;;4995088;28;20201;-75
2021/04/14 02:43:45;;;;;;;4.17;3.60;;;;;;;;;;4993889;28;20189;-75
2021/04/14 02:46:11;;;;;;;5.10;3.90;;;;;;;;;;4977632;28;20182;-75
2021/04/14 02:48:37;;;;;;;6.33;3.60;;;;;;;;;;4993329;28;20746;-75
2021/04/14 02:51:06;;;;;;;5.47;4.00;;;;;;;;;;4976875;28;20269;-75
2021/04/14 02:53:35;;;;;;;5.13;3.67;;;;;;;;;;4993653;28;20189;-75
2021/04/14 02:56:01;;;;;;;6.67;3.80;;;;;;;;;;4993526;28;20223;-75
2021/04/14 02:58:27;;;;;;;5.43;4.20;;;;;;;;;;4993272;28;20242;-75
2021/04/14 03:00:53;;;;;;;7.10;3.70;;;;;;;;;;4992886;28;20240;-75
2021/04/14 03:03:19;;;;;;;4.83;3.70;;;;;;;;;;4977120;28;20183;-75
2021/04/14 03:05:45;;;;;;;5.40;3.50;;;;;;;;;;4992925;28;20182;-75
2021/04/14 03:08:11;;;;;;;4.50;3.47;;;;;;;;;;4992980;28;20232;-75
2021/04/14 03:10:37;;;;;;;4.17;3.50;;;;;;;;;;4993714;28;20223;-75
2021/04/14 03:13:04;;;;;;;4.23;3.67;;;;;;;;;;4994980;28;20547;-75
2021/04/14 03:15:32;;;;;;;7.47;3.70;;;;;;;;;;4993978;28;20170;-75
2021/04/14 03:17:58;;;;;;;4.57;3.57;;;;;;;;;;4994529;28;20211;-75
2021/04/14 03:20:24;;;;;;;5.03;3.40;;;;;;;;;;4980577;28;20185;-75
2021/04/14 03:22:51;;;;;;;5.70;3.57;;;;;;;;;;4993289;28;20647;-75
2021/04/14 03:25:17;;;;;;;4.47;3.53;;;;;;;;;;4977201;28;20281;-75
2021/04/14 03:27:43;;;;;;;4.30;3.30;;;;;;;;;;4992854;28;20204;-75
2021/04/14 03:30:09;;;;;;;4.77;3.83;;;;;;;;;;4993207;28;20181;-75
2021/04/14 03:32:35;;;;;;;6.27;3.40;;;;;;;;;;4993199;28;20190;-75
2021/04/14 03:35:02;;;;;;;7.23;3.97;;;;;;;;;;4976888;28;20183;-75
2021/04/14 03:37:28;;;;;;;6.03;3.80;;;;;;;;;;4976044;28;20218;-75
2021/04/14 03:39:54;;;;;;;5.63;3.90;;;;;;;;;;4993756;28;20206;-75
2021/04/14 03:42:20;;;;;;;9.60;4.20;;;;;;;;;;4992928;28;20187;-75
2021/04/14 03:44:51;;;;;;;7.13;3.43;;;;;;;;;;4976547;28;20246;-75
2021/04/14 03:47:17;;;;;;;5.27;3.77;;;;;;;;;;4977020;28;20249;-75
2021/04/14 03:49:43;;;;;;;6.77;3.90;;;;;;;;;;4976503;28;20186;-75
2021/04/14 03:52:09;;;;;;;5.87;4.43;;;;;;;;;;4993644;28;20265;-75
2021/04/14 03:54:35;;;;;;;5.40;3.73;;;;;;;;;;4994179;28;20655;-75
2021/04/14 03:57:01;;;;;;;5.07;3.60;;;;;;;;;;4992799;28;20415;-75
2021/04/14 03:59:26;;;;;;;7.20;4.10;;;;;;;;;;4992668;28;20178;-75
2021/04/14 04:01:53;;;;;;;6.20;3.57;;;;;;;;;;4992451;28;20183;-76
2021/04/14 04:04:19;;;;;;;5.17;4.07;;;;;;;;;;4992594;28;20237;-75
2021/04/14 04:06:45;;;;;;;4.37;3.60;;;;;;;;;;4976377;28;20181;-75
2021/04/14 04:09:11;;;;;;;4.67;3.40;;;;;;;;;;4992296;28;20205;-75
2021/04/14 04:11:37;;;;;;;6.43;4.10;;;;;;;;;;4994110;28;20256;-75
2021/04/14 04:14:03;;;;;;;3.87;3.53;;;;;;;;;;4993094;28;20187;-75
2021/04/14 04:16:29;;;;;;;5.17;3.73;;;;;;;;;;4976462;28;20183;-75
2021/04/14 04:18:55;;;;;;;7.53;4.00;;;;;;;;;;4976018;28;20317;-75
2021/04/14 04:21:21;;;;;;;4.50;3.93;;;;;;;;;;4975940;28;20181;-75
2021/04/14 04:23:47;;;;;;;5.13;3.40;;;;;;;;;;4976748;28;20193;-75
2021/04/14 04:26:13;;;;;;;6.43;3.80;;;;;;;;;;4992238;28;20660;-75
2021/04/14 04:28:39;;;;;;;5.43;3.73;;;;;;;;;;4992332;28;20213;-75
2021/04/14 04:31:05;;;;;;;4.00;3.60;;;;;;;;;;4992225;28;20180;-75
2021/04/14 04:33:31;;;;;;;5.33;3.80;;;;;;;;;;4992370;28;20185;-75
2021/04/14 04:35:58;;;;;;;5.07;3.63;;;;;;;;;;4975739;28;20665;-75
2021/04/14 04:38:24;;;;;;;4.93;3.80;;;;;;;;;;4992157;28;20255;-75
2021/04/14 04:40:50;;;;;;;6.10;3.90;;;;;;;;;;4975580;28;20181;-75
2021/04/14 04:43:16;;;;;;;4.43;3.40;;;;;;;;;;4992120;28;20181;-75
2021/04/14 04:45:42;;;;;;;5.87;3.90;;;;;;;;;;4994092;28;20201;-75
2021/04/14 04:48:09;;;;;;;5.07;3.40;;;;;;;;;;4979492;28;20206;-76
2021/04/14 04:50:36;;;;;;;7.23;4.23;;;;;;;;;;5014141;28;20626;-75
2021/04/14 04:53:08;;;;;;;5.60;3.40;;;;;;;;;;5013538;28;20164;-75
2021/04/14 04:55:34;;;;;;;4.60;3.80;;;;;;;;;;5013073;28;20201;-75
2021/04/14 04:58:00;;;;;;;8.90;4.20;;;;;;;;;;5007044;28;20216;-78
2021/04/14 05:00:26;;;;;;;5.80;4.17;;;;;;;;;;4992978;28;20634;-77
2021/04/14 05:02:53;;;;;;;6.60;4.67;;;;;;;;;;4995735;28;20185;-79
2021/04/14 05:05:23;;;;;;;5.60;3.63;;;;;;;;;;5013214;28;20166;-77
2021/04/14 05:07:49;;;;;;;7.50;4.10;;;;;;;;;;4995751;28;20233;-77
2021/04/14 05:10:15;;;;;;;5.93;4.67;;;;;;;;;;4996263;28;20164;-76
2021/04/14 05:12:41;;;;;;;6.90;4.33;;;;;;;;;;4982812;28;20560;-76
2021/04/14 05:15:07;;;;;;;8.33;4.30;;;;;;;;;;4979732;28;20181;-76
2021/04/14 05:17:33;;;;;;;5.80;4.67;;;;;;;;;;4979562;28;20709;-76
2021/04/14 05:19:59;;;;;;;7.00;4.00;;;;;;;;;;4978962;28;20181;-76
2021/04/14 05:22:27;;;;;;;5.60;4.00;;;;;;;;;;4995523;28;20234;-76
2021/04/14 05:24:53;;;;;;;8.47;4.47;;;;;;;;;;4995515;28;20175;-76
2021/04/14 05:27:19;;;;;;;7.70;4.13;;;;;;;;;;4979242;28;20649;-77
2021/04/14 05:29:45;;;;;;;9.00;4.27;;;;;;;;;;4993067;28;20188;-76
2021/04/14 05:32:11;;;;;;;6.87;4.37;;;;;;;;;;4977667;28;20235;-78
2021/04/14 05:34:37;;;;;;;9.10;4.70;;;;;;;;;;4979385;28;20584;-77
2021/04/14 05:37:03;;;;;;;8.60;4.30;;;;;;;;;;4980247;28;20221;-77
2021/04/14 05:39:29;;;;;;;8.63;4.50;;;;;;;;;;4977867;28;20193;-76
2021/04/14 05:41:55;;;;;;;6.90;4.50;;;;;;;;;;4983062;28;20236;-76
2021/04/14 05:44:21;;;;;;;11.30;4.70;;;;;;;;;;4984007;28;20182;-77
2021/04/14 05:46:47;;;;;;;5.60;4.37;;;;;;;;;;4998411;28;20186;-77
2021/04/14 05:49:13;;;;;;;7.30;4.37;;;;;;;;;;4982443;28;20179;-76
2021/04/14 05:51:39;;;;;;;6.63;4.53;;;;;;;;;;4973982;28;20179;-76
2021/04/14 05:54:05;;;;;;;9.43;4.90;;;;;;;;;;4985049;28;20207;-77
2021/04/14 05:56:31;;;;;;;6.57;4.67;;;;;;;;;;4995891;28;20635;-76
2021/04/14 05:58:57;;;;;;;12.60;8.57;;;;;;;;;;4978200;28;20777;-78
2021/04/14 06:01:24;;;;;;;33.57;29.47;;;;;;;;;;4975168;28;20282;-76
2021/04/14 06:03:50;;;;;;;23.47;20.27;;;;;;;;;;4984933;28;20202;-77
2021/04/14 06:06:16;;;;;;;21.33;18.90;;;;;;;;;;4989133;28;20196;-77
2021/04/14 06:08:42;;;;;;;31.57;21.43;;;;;;;;;;4979285;28;20226;-75
2021/04/14 06:11:08;;;;;;;19.67;15.50;;;;;;;;;;4980151;28;20271;-75
2021/04/14 06:13:34;;;;;;;14.23;8.97;;;;;;;;;;4978262;28;20288;-75
2021/04/14 06:16:00;;;;;;;12.90;6.27;;;;;;;;;;4973359;28;20240;-76
2021/04/14 06:18:26;;;;;;;12.70;6.30;;;;;;;;;;4968957;28;20839;-75
2021/04/14 06:20:52;;;;;;;13.80;5.70;;;;;;;;;;4965993;28;20220;-75
2021/04/14 06:23:19;;;;;;;5.50;4.33;;;;;;;;;;4965738;28;20642;-77
2021/04/14 06:26:00;;;;;;;5.90;4.00;;;;;;;;;;4987465;28;20767;-75
2021/04/14 06:28:26;;;;;;;6.90;4.10;;;;;;;;;;4973468;28;20906;-76
2021/04/14 06:30:52;;;;;;;5.70;3.73;;;;;;;;;;4975986;28;20217;-76
2021/04/14 06:33:20;;;;;;;4.77;3.50;;;;;;;;;;4994156;28;20553;-76
2021/04/14 06:35:47;;;;;;;4.90;3.40;;;;;;;;;;4976469;28;20183;-76
2021/04/14 06:38:16;;;;;;;5.23;3.97;;;;;;;;;;4993357;28;20247;-76
2021/04/14 06:40:57;;;;;;;6.33;3.70;;;;;;;;;;4993665;28;20704;-77
2021/04/14 06:43:44;;;;;;;7.27;3.87;;;;;;;;;;4977233;28;20223;-77
2021/04/14 06:46:18;;;;;;;5.87;3.60;;;;;;;;;;4980327;28;20695;-76
2021/04/14 06:49:02;;;;;;;9.10;3.53;;;;;;;;;;4977788;28;20242;-77
2021/04/14 06:51:28;;;;;;;7.13;3.40;;;;;;;;;;4977391;28;20180;-76
2021/04/14 06:54:13;;;;;;;4.00;3.17;;;;;;;;;;4976758;28;20181;-78
2021/04/14 06:56:39;;;;;;;6.50;3.17;;;;;;;;;;4977843;28;20215;-80
2021/04/14 06:59:06;;;;;;;7.20;3.33;;;;;;;;;;4990494;28;20647;-79
2021/04/14 07:01:36;;;;;;;5.53;3.27;;;;;;;;;;4996536;28;20185;-79
2021/04/14 07:04:02;;;;;;;5.70;3.47;;;;;;;;;;4963377;28;20190;-79
2021/04/14 07:06:29;;;;;;;5.27;3.67;;;;;;;;;;4997938;28;20181;-82
2021/04/14 07:09:00;;;;;;;7.17;3.73;;;;;;;;;;4975592;28;20217;-85
2021/04/14 07:11:26;;;;;;;8.97;3.57;;;;;;;;;;4995244;28;20191;-84
2021/04/14 07:13:52;;;;;;;6.50;3.50;;;;;;;;;;4973404;28;20179;-81
2021/04/14 07:16:24;;;;;;;5.50;3.60;;;;;;;;;;4977186;28;20184;-82
2021/04/14 07:18:56;;;;;;;5.63;3.37;;;;;;;;;;4985953;28;20262;-79
2021/04/14 07:21:29;;;;;;;5.17;3.60;;;;;;;;;;4959833;28;20185;-81
2021/04/14 07:24:00;;;;;;;7.17;3.63;;;;;;;;;;4960084;28;20176;-79
2021/04/14 07:26:26;;;;;;;4.93;3.47;;;;;;;;;;4959128;28;20191;-80
2021/04/14 07:29:01;;;;;;;11.33;3.77;;;;;;;;;;4974924;28;20209;-78
2021/04/14 07:31:38;;;;;;;4.73;2.87;;;;;;;;;;4981697;28;20213;-81
2021/04/14 07:34:22;;;;;;;8.47;2.60;;;;;;;;;;4978861;28;20245;-79
2021/04/14 07:36:52;;;;;;;5.87;2.70;;;;;;;;;;4996623;28;20185;-80
2021/04/14 07:39:39;;;;;;;4.03;2.27;;;;;;;;;;4978093;28;20191;-82
2021/04/14 07:42:31;;;;;;;6.43;2.53;;;;;;;;;;4993343;28;20199;-82
2021/04/14 07:45:00;;;;;;;5.40;2.07;;;;;;;;;;4995981;28;20270;-81
2021/04/14 07:47:26;;;;;;;5.53;2.00;;;;;;;;;;4994874;28;20219;-80
2021/04/14 07:49:52;;;;;;;7.30;3.13;;;;;;;;;;4978612;28;20248;-80
2021/04/14 07:52:20;;;;;;;6.97;1.83;;;;;;;;;;4995476;28;20182;-80
2021/04/14 07:54:47;;;;;;;6.20;2.00;;;;;;;;;;4996000;28;20241;-80
2021/04/14 07:57:13;;;;;;;3.33;1.30;;;;;;;;;;4995600;28;20463;-79
2021/04/14 07:59:43;;;;;;;2.03;1.07;;;;;;;;;;4982554;28;20183;-81
2021/04/14 08:02:11;;;;;;;2.43;1.07;;;;;;;;;;4980672;28;20183;-81
2021/04/14 08:04:38;;;;;;;4.33;1.03;;;;;;;;;;4995861;28;20669;-81
2021/04/14 08:07:07;;;;;;;3.93;1.03;;;;;;;;;;5010423;28;20214;-81
2021/04/14 08:09:33;;;;;;;1.67;0.80;;;;;;;;;;4996723;28;20549;-81
2021/04/14 08:12:04;;;;;;;3.53;0.93;;;;;;;;;;4996377;28;20659;-80
2021/04/14 08:14:41;;;;;;;4.07;1.00;;;;;;;;;;4995987;28;20193;-81
2021/04/14 08:17:14;;;;;;;4.03;1.20;;;;;;;;;;4995834;28;20257;-81
2021/04/14 08:19:40;;;;;;;2.97;1.20;;;;;;;;;;4995409;28;20181;-82
2021/04/14 08:22:14;;;;;;;5.47;1.10;;;;;;;;;;4979113;28;20187;-81
2021/04/14 08:24:41;;;;;;;3.70;1.40;;;;;;;;;;4995172;28;20217;-81
2021/04/14 08:27:34;;;;;;;3.67;1.00;;;;;;;;;;4995157;28;20206;-82
2021/04/14 08:30:20;;;;;;;5.27;1.53;;;;;;;;;;4993895;28;20543;-81
2021/04/14 08:32:56;;;;;;;4.17;1.40;;;;;;;;;;4996631;28;20190;-81
2021/04/14 08:35:28;;;;;;;4.63;1.40;;;;;;;;;;4978715;28;20177;-83
2021/04/14 08:38:13;;;;;;;4.33;1.20;;;;;;;;;;4994335;28;20353;-81
2021/04/14 08:40:42;;;;;;;1.57;1.37;;;;;;;;;;4994199;28;20547;-81
2021/04/14 08:43:09;;;;;;;1.60;1.10;;;;;;;;;;4994164;28;20354;-81
2021/04/14 08:45:37;;;;;;;4.23;1.33;;;;;;;;;;4968596;28;20222;-81
2021/04/14 08:48:09;;;;;;;4.00;1.10;;;;;;;;;;4978144;28;20207;-81
2021/04/14 08:50:36;;;;;;;4.50;1.33;;;;;;;;;;4983505;28;20598;-80
2021/04/14 08:53:03;;;;;;;3.07;1.40;;;;;;;;;;4957664;28;20185;-81
2021/04/14 08:55:29;;;;;;;3.53;1.30;;;;;;;;;;4956379;28;20185;-82
2021/04/14 08:57:56;;;;;;;4.60;1.50;;;;;;;;;;4956696;28;20227;-84
2021/04/14 09:00:22;;;;;;;5.60;1.40;;;;;;;;;;4973036;28;20554;-84
2021/04/14 09:02:48;;;;;;;4.93;1.23;;;;;;;;;;4973326;28;20213;-82
2021/04/14 09:05:15;;;;;;;2.60;1.10;;;;;;;;;;4974403;28;20732;-80
2021/04/14 09:07:41;;;;;;;6.53;1.40;;;;;;;;;;4974166;28;20281;-81
2021/04/14 09:10:09;;;;;;;7.77;1.33;;;;;;;;;;4958634;28;20554;-81
2021/04/14 09:12:43;;;;;;;4.43;1.43;;;;;;;;;;4958601;28;20192;-82
2021/04/14 09:15:09;;;;;;;2.70;1.17;;;;;;;;;;4974930;28;20181;-81
2021/04/14 09:17:35;;;;;;;3.00;1.00;;;;;;;;;;4960184;28;20218;-81
2021/04/14 09:20:27;;;;;;;4.00;1.30;;;;;;;;;;4976090;28;20643;-80
2021/04/14 09:22:57;;;;;;;2.80;1.47;;;;;;;;;;4975232;28;20290;-81
2021/04/14 09:25:27;;;;;;;3.93;1.10;;;;;;;;;;4960283;28;20192;-82
2021/04/14 09:27:53;;;;;;;3.20;1.23;;;;;;;;;;4976648;28;20295;-82
2021/04/14 09:30:40;;;;;;;3.00;1.30;;;;;;;;;;4976799;28;20228;-82
2021/04/14 09:33:06;;;;;;;2.17;1.13;;;;;;;;;;4979093;28;20192;-84
2021/04/14 09:35:32;;;;;;;3.57;1.17;;;;;;;;;;4976256;28;20564;-81
2021/04/14 09:38:20;;;;;;;3.00;1.40;;;;;;;;;;4976098;28;20594;-82
2021/04/14 09:40:46;;;;;;;4.03;1.20;;;;;;;;;;4960584;28;20183;-81
2021/04/14 09:43:20;;;;;;;3.17;1.40;;;;;;;;;;4959630;28;20534;-83
2021/04/14 09:45:59;;;;;;;4.80;1.43;;;;;;;;;;4981228;28;20188;-84
2021/04/14 09:48:25;;;;;;;3.10;1.47;;;;;;;;;;4959703;28;20214;-83
2021/04/14 09:50:51;;;;;;;1.57;1.13;;;;;;;;;;4960663;28;20648;-85
2021/04/14 09:53:43;;;;;;;3.50;1.50;;;;;;;;;;4974415;28;20189;-80
2021/04/14 09:56:20;;;;;;;4.47;1.40;;;;;;;;;;4978976;28;20659;-84
2021/04/14 09:58:55;;;;;;;3.03;1.60;;;;;;;;;;4964258;28;20714;-81
2021/04/14 10:01:27;;;;;;;5.17;1.73;;;;;;;;;;4964113;28;20193;-84
2021/04/14 10:04:03;;;;;;;2.80;1.30;;;;;;;;;;4977447;28;20195;-82
2021/04/14 10:06:29;;;;;;;3.27;1.40;;;;;;;;;;4961474;28;20179;-81
2021/04/14 10:09:03;;;;;;;2.97;1.53;;;;;;;;;;4960229;28;20616;-81
2021/04/14 10:11:36;;;;;;;2.93;1.30;;;;;;;;;;4959859;28;20188;-81
2021/04/14 10:14:15;;;;;;;1.77;1.30;;;;;;;;;;4967825;28;20668;-82
2021/04/14 10:16:41;;;;;;;4.20;1.70;;;;;;;;;;4979359;28;20245;-81
2021/04/14 10:19:08;;;;;;;3.13;1.50;;;;;;;;;;4967170;28;20683;-81
2021/04/14 10:21:35;;;;;;;2.90;1.50;;;;;;;;;;4959951;28;20188;-82
2021/04/14 10:24:02;;;;;;;2.93;1.43;;;;;;;;;;4976044;28;20242;-81
2021/04/14 10:26:29;;;;;;;3.30;1.33;;;;;;;;;;4960225;28;20230;-82
2021/04/14 10:28:55;;;;;;;3.00;1.50;;;;;;;;;;4977368;28;20215;-82
2021/04/14 10:31:24;;;;;;;4.27;1.50;;;;;;;;;;4961428;28;20180;-81
2021/04/14 10:33:50;;;;;;;2.13;1.40;;;;;;;;;;4960317;28;20188;-81
2021/04/14 10:36:24;;;;;;;2.00;1.40;;;;;;;;;;4977222;28;20195;-82
2021/04/14 10:38:50;;;;;;;1.87;1.60;;;;;;;;;;4960075;28;20247;-81
2021/04/14 10:41:22;;;;;;;4.30;1.70;;;;;;;;;;4960393;28;20270;-81
2021/04/14 10:43:48;;;;;;;2.93;1.43;;;;;;;;;;4978507;28;20276;-85
2021/04/14 10:46:19;;;;;;;4.17;1.40;;;;;;;;;;4995048;28;20226;-81
2021/04/14 10:48:49;;;;;;;2.60;1.70;;;;;;;;;;4991481;28;20217;-83
2021/04/14 10:51:22;;;;;;;3.10;1.50;;;;;;;;;;5011828;28;20667;-85
2021/04/14 10:53:49;;;;;;;2.90;1.50;;;;;;;;;;4993835;28;20187;-87
2021/04/14 10:56:22;;;;;;;5.43;1.93;;;;;;;;;;4977912;28;20186;-85
2021/04/14 10:58:49;;;;;;;2.13;1.27;;;;;;;;;;4982558;28;20215;-85
2021/04/14 11:01:16;;;;;;;4.43;1.20;;;;;;;;;;5010367;28;20213;-84
2021/04/14 11:03:42;;;;;;;2.23;1.30;;;;;;;;;;4977448;28;20179;-83
2021/04/14 11:06:10;;;;;;;2.20;1.33;;;;;;;;;;4978153;28;20278;-82
2021/04/14 11:08:36;;;;;;;2.27;1.40;;;;;;;;;;4994095;28;20220;-86
2021/04/14 11:11:02;;;;;;;2.93;1.50;;;;;;;;;;4978101;28;20189;-84
2021/04/14 11:13:29;;;;;;;3.37;1.20;;;;;;;;;;4990699;28;20177;-85
2021/04/14 11:15:55;;;;;;;4.10;1.60;;;;;;;;;;4964465;28;20226;-84
2021/04/14 11:18:33;;;;;;;3.73;1.63;;;;;;;;;;4969386;28;20219;-87
2021/04/14 11:23:30;;;;;;;3.60;1.63;;;;;;;;;;4999972;28;20187;-84
2021/04/14 11:26:09;;;;;;;2.60;1.37;;;;;;;;;;4984331;28;20177;-86
2021/04/14 11:28:42;;;;;;;4.13;1.50;;;;;;;;;;4984164;28;20210;-83
2021/04/14 11:31:09;;;;;;;3.33;1.43;;;;;;;;;;4982137;28;20585;-86
2021/04/14 11:33:35;;;;;;;3.60;1.63;;;;;;;;;;4981878;28;20196;-80
2021/04/14 11:36:01;;;;;;;4.57;1.37;;;;;;;;;;4997039;28;20186;-80
2021/04/14 11:38:37;;;;;;;2.10;1.27;;;;;;;;;;4995236;28;20263;-79
2021/04/14 11:41:37;;;;;;;2.87;1.20;;;;;;;;;;4975513;28;20200;-82
2021/04/14 11:44:13;;;;;;;2.33;1.10;;;;;;;;;;4977661;28;20192;-84
2021/04/14 11:46:40;;;;;;;2.80;1.30;;;;;;;;;;4993240;28;20211;-82
2021/04/14 11:49:10;;;;;;;1.20;0.90;;;;;;;;;;4977385;28;20459;-84
2021/04/14 11:51:36;;;;;;;2.33;0.93;;;;;;;;;;4977286;28;20187;-82
2021/04/14 11:54:03;;;;;;;2.83;1.03;;;;;;;;;;4977691;28;20686;-82
2021/04/14 11:56:37;;;;;;;2.13;0.80;;;;;;;;;;4958791;28;20193;-83
2021/04/14 11:59:03;;;;;;;1.90;0.90;;;;;;;;;;4958679;28;20214;-83
2021/04/14 12:01:30;;;;;;;1.97;0.80;;;;;;;;;;4959280;28;20246;-81
2021/04/14 12:03:56;;;;;;;1.47;0.63;;;;;;;;;;4977360;28;20192;-83
2021/04/14 12:06:22;;;;;;;1.00;0.80;;;;;;;;;;4978907;28;20210;-81
2021/04/14 12:08:48;;;;;;;1.67;0.80;;;;;;;;;;4978556;28;20214;-80
2021/04/14 12:11:15;;;;;;;1.63;0.80;;;;;;;;;;5011134;28;20210;-79
2021/04/14 12:13:41;;;;;;;1.50;0.87;;;;;;;;;;4995111;28;20210;-79
2021/04/14 12:16:07;;;;;;;3.00;1.13;;;;;;;;;;4993064;28;20621;-80
2021/04/14 12:18:33;;;;;;;1.77;1.00;;;;;;;;;;4995871;28;20590;-76
2021/04/14 12:20:59;;;;;;;1.10;0.90;;;;;;;;;;4992565;28;20262;-76
2021/04/14 12:23:25;;;;;;;1.63;1.17;;;;;;;;;;5007412;28;20183;-76
2021/04/14 12:25:51;;;;;;;1.87;1.00;;;;;;;;;;5007647;28;20698;-75
2021/04/14 12:28:17;;;;;;;2.53;1.10;;;;;;;;;;4992229;28;20608;-75
2021/04/14 12:30:43;;;;;;;1.57;0.83;;;;;;;;;;5007443;28;20190;-75
2021/04/14 12:33:09;;;;;;;2.47;1.07;;;;;;;;;;5007670;28;20184;-75
2021/04/14 12:35:35;;;;;;;3.57;1.00;;;;;;;;;;4981544;28;20661;-78
2021/04/14 12:38:04;;;;;;;1.60;0.87;;;;;;;;;;4956700;28;20219;-79
2021/04/14 12:40:30;;;;;;;2.17;0.90;;;;;;;;;;4959133;28;20184;-79
2021/04/14 12:42:56;;;;;;;2.27;0.90;;;;;;;;;;4976484;28;20330;-81
2021/04/14 12:45:37;;;;;;;2.73;1.00;;;;;;;;;;4977693;28;20180;-81
2021/04/14 12:48:04;;;;;;;1.07;0.70;;;;;;;;;;4985443;28;20219;-81
2021/04/14 12:50:30;;;;;;;3.07;0.93;;;;;;;;;;4981022;28;20265;-81
2021/04/14 12:52:56;;;;;;;2.53;0.90;;;;;;;;;;5010927;28;20192;-81
2021/04/14 12:55:24;;;;;;;3.00;1.10;;;;;;;;;;5008822;28;20222;-81
2021/04/14 12:57:50;;;;;;;1.47;0.80;;;;;;;;;;4974372;28;20243;-79
2021/04/14 13:00:17;;;;;;;1.30;0.90;;;;;;;;;;4994897;28;20573;-82
2021/04/14 13:02:50;;;;;;;1.73;1.00;;;;;;;;;;4964285;28;20181;-81
2021/04/14 13:05:23;;;;;;;1.87;0.90;;;;;;;;;;4979831;28;20184;-81
2021/04/14 13:08:07;;;;;;;1.47;0.77;;;;;;;;;;4994671;28;20365;-78
2021/04/14 13:10:44;;;;;;;3.20;0.97;;;;;;;;;;4996683;28;20219;-79
2021/04/14 13:13:10;;;;;;;2.43;0.93;;;;;;;;;;5015442;28;20199;-82
2021/04/14 13:15:41;;;;;;;1.23;0.70;;;;;;;;;;4986135;28;20189;-79
2021/04/14 13:18:07;;;;;;;1.60;1.10;;;;;;;;;;4996028;28;20271;-79
2021/04/14 13:20:33;;;;;;;2.20;0.90;;;;;;;;;;4968282;28;20262;-80
2021/04/14 13:23:08;;;;;;;1.60;0.97;;;;;;;;;;4972784;28;20180;-82
2021/04/14 13:26:04;;;;;;;2.77;1.07;;;;;;;;;;4992382;28;20187;-80
2021/04/14 13:28:40;;;;;;;1.00;0.90;;;;;;;;;;4980622;28;20610;-80
2021/04/14 13:31:15;;;;;;;1.77;1.00;;;;;;;;;;4966946;28;20746;-79
2021/04/14 13:33:41;;;;;;;1.43;1.10;;;;;;;;;;4962078;28;20213;-79
2021/04/14 13:36:22;;;;;;;4.10;1.10;;;;;;;;;;4976543;28;20216;-79
2021/04/14 13:38:49;;;;;;;3.60;1.20;;;;;;;;;;4959064;28;20217;-78
2021/04/14 13:41:34;;;;;;;2.57;1.27;;;;;;;;;;4974878;28;20202;-78
2021/04/14 13:44:19;;;;;;;1.20;1.10;;;;;;;;;;4975866;28;20212;-79
2021/04/14 13:46:49;;;;;;;3.20;1.23;;;;;;;;;;4974886;28;20196;-78
2021/04/14 13:49:31;;;;;;;1.83;1.40;;;;;;;;;;4975206;28;20638;-79
2021/04/14 13:52:01;;;;;;;3.53;1.30;;;;;;;;;;4958431;28;20187;-79
2021/04/14 13:54:27;;;;;;;1.70;1.13;;;;;;;;;;4974945;28;20636;-79
2021/04/14 13:56:54;;;;;;;2.40;1.10;;;;;;;;;;4974534;28;20222;-79
2021/04/14 13:59:41;;;;;;;1.53;1.07;;;;;;;;;;4958365;28;20217;-79
2021/04/14 14:02:26;;;;;;;1.00;0.90;;;;;;;;;;4973784;28;20644;-79
2021/04/14 14:04:52;;;;;;;2.67;1.20;;;;;;;;;;4974208;28;20181;-78
2021/04/14 14:07:25;;;;;;;4.00;1.27;;;;;;;;;;4958280;28;20255;-79
2021/04/14 14:09:55;;;;;;;2.47;1.20;;;;;;;;;;4975365;28;20205;-78
2021/04/14 14:12:22;;;;;;;2.83;1.00;;;;;;;;;;4958730;28;20601;-78
2021/04/14 14:14:49;;;;;;;1.53;1.10;;;;;;;;;;4958329;28;20209;-79
2021/04/14 14:17:20;;;;;;;2.93;1.50;;;;;;;;;;4958034;28;20213;-79
2021/04/14 14:19:46;;;;;;;1.00;0.90;;;;;;;;;;4975953;28;20219;-79
2021/04/14 14:22:12;;;;;;;2.90;1.23;;;;;;;;;;4973617;28;20553;-79
2021/04/14 14:24:41;;;;;;;2.13;1.00;;;;;;;;;;4994021;28;20663;-79
2021/04/14 14:27:08;;;;;;;1.80;1.10;;;;;;;;;;4991155;28;20205;-80
2021/04/14 14:29:34;;;;;;;2.13;1.00;;;;;;;;;;4975998;28;20197;-82
2021/04/14 14:32:01;;;;;;;2.97;1.00;;;;;;;;;;4982272;28;20276;-80
2021/04/14 14:34:27;;;;;;;1.03;0.80;;;;;;;;;;4997420;28;20187;-83
2021/04/14 14:36:55;;;;;;;1.93;0.93;;;;;;;;;;4997722;28;20273;-82
2021/04/14 14:39:27;;;;;;;2.90;1.00;;;;;;;;;;4991477;28;20224;-81
2021/04/14 14:41:55;;;;;;;2.00;0.80;;;;;;;;;;4999166;28;20228;-80
2021/04/14 14:44:23;;;;;;;4.10;1.00;;;;;;;;;;4976297;28;20272;-81
2021/04/14 14:46:49;;;;;;;2.10;0.93;;;;;;;;;;4995878;28;20172;-79
2021/04/14 14:49:17;;;;;;;2.30;1.00;;;;;;;;;;4978748;28;20705;-80
2021/04/14 14:51:43;;;;;;;1.83;1.10;;;;;;;;;;4994210;28;20623;-78
2021/04/14 14:54:09;;;;;;;3.10;1.30;;;;;;;;;;4974524;28;20182;-79
2021/04/14 14:56:35;;;;;;;1.47;1.10;;;;;;;;;;4993907;28;20185;-78